Time;durP1;ratioP1;P1;durP2;ratioP2;P2;SDS_P1;SDS_P2;PMS_P1;PMS_P2;Temp;Humidity;BMP_temperature;BMP_pressure;BME280_temperature;BME280_humidity;BME280_pressure;Samples;Min_cycle;Max_cycle;Signal;HPM_P1;HPM_P2
2022/09/02 00:02:59;;;;;;;3.97;2.50;;;;;;;;;;4992504;28;20181;-84
2022/09/02 00:06:04;;;;;;;4.87;2.40;;;;;;;;;;5004014;28;20205;-84
2022/09/02 00:09:10;;;;;;;2.73;2.33;;;;;;;;;;5002990;28;20205;-84
2022/09/02 00:12:14;;;;;;;3.63;2.43;;;;;;;;;;5002872;28;20510;-84
2022/09/02 00:15:19;;;;;;;2.63;2.40;;;;;;;;;;4991641;28;20687;-84
2022/09/02 00:18:25;;;;;;;7.60;2.70;;;;;;;;;;5002907;28;20181;-84
2022/09/02 00:21:31;;;;;;;3.70;2.50;;;;;;;;;;4991879;28;20197;-84
2022/09/02 00:24:35;;;;;;;4.90;2.60;;;;;;;;;;5002850;28;20212;-84
2022/09/02 00:27:40;;;;;;;2.90;2.63;;;;;;;;;;4992454;28;20198;-85
2022/09/02 00:30:45;;;;;;;3.50;2.70;;;;;;;;;;4992148;28;20186;-84
2022/09/02 00:33:50;;;;;;;2.73;2.30;;;;;;;;;;4992104;28;20229;-85
2022/09/02 00:36:54;;;;;;;5.57;2.53;;;;;;;;;;4992269;28;20185;-85
2022/09/02 00:39:58;;;;;;;4.20;2.80;;;;;;;;;;4992227;28;20182;-85
2022/09/02 00:43:07;;;;;;;8.97;2.60;;;;;;;;;;4992358;28;20173;-85
2022/09/02 00:46:15;;;;;;;2.90;2.50;;;;;;;;;;5003273;28;20277;-85
2022/09/02 00:49:25;;;;;;;3.70;2.70;;;;;;;;;;4992094;28;20616;-84
2022/09/02 00:52:33;;;;;;;4.27;2.80;;;;;;;;;;5002600;28;20197;-84
2022/09/02 00:55:46;;;;;;;6.17;2.80;;;;;;;;;;4991333;28;20229;-85
2022/09/02 00:58:51;;;;;;;3.17;2.87;;;;;;;;;;4992394;28;20182;-84
2022/09/02 01:01:55;;;;;;;3.53;2.50;;;;;;;;;;4992530;28;20181;-85
2022/09/02 01:05:00;;;;;;;3.30;2.73;;;;;;;;;;4990916;28;20220;-85
2022/09/02 01:08:08;;;;;;;3.87;2.77;;;;;;;;;;5003034;28;20185;-85
2022/09/02 01:11:12;;;;;;;4.27;2.90;;;;;;;;;;4992420;28;20534;-85
2022/09/02 01:14:17;;;;;;;3.80;2.83;;;;;;;;;;4991069;28;20225;-84
2022/09/02 01:17:21;;;;;;;4.77;2.93;;;;;;;;;;5002369;28;20178;-85
2022/09/02 01:20:25;;;;;;;6.13;3.73;;;;;;;;;;5013448;28;20185;-85
2022/09/02 01:23:31;;;;;;;6.73;2.70;;;;;;;;;;4990837;28;20173;-85
2022/09/02 01:26:34;;;;;;;3.50;2.80;;;;;;;;;;4992286;28;20189;-85
2022/09/02 01:29:39;;;;;;;5.77;3.10;;;;;;;;;;4996483;28;20525;-85
2022/09/02 01:32:43;;;;;;;2.87;2.67;;;;;;;;;;4996088;28;20182;-84
2022/09/02 01:35:47;;;;;;;3.97;3.00;;;;;;;;;;4999752;28;20173;-85
2022/09/02 01:38:51;;;;;;;3.27;2.97;;;;;;;;;;5011097;28;20178;-84
2022/09/02 01:41:56;;;;;;;3.40;3.10;;;;;;;;;;5001119;28;20267;-84
2022/09/02 01:45:00;;;;;;;7.03;3.30;;;;;;;;;;5013652;28;20213;-85
2022/09/02 01:48:07;;;;;;;3.90;3.20;;;;;;;;;;5003605;28;20186;-84
2022/09/02 01:51:16;;;;;;;3.37;2.93;;;;;;;;;;5003040;28;20186;-84
2022/09/02 01:54:20;;;;;;;4.03;3.10;;;;;;;;;;5001676;28;20229;-85
2022/09/02 01:57:25;;;;;;;3.63;3.33;;;;;;;;;;5002108;28;20193;-84
2022/09/02 02:00:29;;;;;;;3.30;3.00;;;;;;;;;;5001749;28;20182;-84
2022/09/02 02:03:34;;;;;;;3.33;2.87;;;;;;;;;;5001028;28;20521;-85
2022/09/02 02:06:43;;;;;;;4.17;3.30;;;;;;;;;;5001540;28;20194;-84
2022/09/02 02:09:48;;;;;;;4.60;3.60;;;;;;;;;;5000700;28;20177;-85
2022/09/02 02:12:53;;;;;;;6.40;3.80;;;;;;;;;;5022733;28;20201;-84
2022/09/02 02:15:59;;;;;;;4.00;3.60;;;;;;;;;;5000453;28;20633;-84
2022/09/02 02:19:04;;;;;;;4.77;3.60;;;;;;;;;;4999374;28;20182;-84
2022/09/02 02:22:09;;;;;;;4.10;3.70;;;;;;;;;;5021465;28;20174;-85
2022/09/02 02:25:14;;;;;;;3.73;3.00;;;;;;;;;;4998511;28;20562;-84
2022/09/02 02:28:18;;;;;;;3.80;3.50;;;;;;;;;;4997516;28;20185;-84
2022/09/02 02:31:23;;;;;;;5.70;3.17;;;;;;;;;;5008248;28;20629;-85
2022/09/02 02:34:28;;;;;;;3.83;3.43;;;;;;;;;;4996485;28;20233;-84
2022/09/02 02:37:32;;;;;;;4.03;3.00;;;;;;;;;;4996430;28;20181;-85
2022/09/02 02:40:37;;;;;;;3.53;3.00;;;;;;;;;;5006661;28;20645;-84
2022/09/02 02:43:41;;;;;;;3.60;3.27;;;;;;;;;;4995427;28;20213;-85
2022/09/02 02:46:45;;;;;;;3.50;3.20;;;;;;;;;;4993416;28;20201;-85
2022/09/02 02:49:50;;;;;;;4.00;3.60;;;;;;;;;;5016419;28;20198;-84
2022/09/02 02:52:55;;;;;;;5.63;3.40;;;;;;;;;;4995301;28;20670;-84
2022/09/02 02:56:03;;;;;;;3.77;3.20;;;;;;;;;;4994497;28;20169;-84
2022/09/02 02:59:08;;;;;;;5.37;3.73;;;;;;;;;;4994031;28;20522;-84
2022/09/02 03:02:12;;;;;;;3.87;3.47;;;;;;;;;;4994125;28;20174;-84
2022/09/02 03:05:17;;;;;;;6.23;3.80;;;;;;;;;;5004421;28;20557;-84
2022/09/02 03:08:24;;;;;;;8.47;3.53;;;;;;;;;;4993230;28;20201;-84
2022/09/02 03:11:29;;;;;;;4.60;3.40;;;;;;;;;;4993077;28;20177;-84
2022/09/02 03:14:34;;;;;;;4.97;3.53;;;;;;;;;;4993759;28;20233;-85
2022/09/02 03:17:39;;;;;;;4.20;3.47;;;;;;;;;;4993295;28;20181;-84
2022/09/02 03:20:43;;;;;;;4.07;3.40;;;;;;;;;;5004084;28;20197;-85
2022/09/02 03:23:48;;;;;;;3.53;3.23;;;;;;;;;;5004371;28;20220;-84
2022/09/02 03:26:52;;;;;;;3.70;3.20;;;;;;;;;;5004249;28;20174;-84
2022/09/02 03:29:56;;;;;;;5.57;3.40;;;;;;;;;;4993091;28;20181;-84
2022/09/02 03:33:01;;;;;;;3.37;3.07;;;;;;;;;;4992952;28;20182;-84
2022/09/02 03:36:07;;;;;;;6.17;3.60;;;;;;;;;;5004085;28;20177;-85
2022/09/02 03:39:12;;;;;;;6.10;3.83;;;;;;;;;;4992864;28;20182;-84
2022/09/02 03:42:18;;;;;;;3.47;3.13;;;;;;;;;;5004255;28;20644;-84
2022/09/02 03:45:23;;;;;;;3.43;3.10;;;;;;;;;;5003742;28;20213;-84
2022/09/02 03:48:28;;;;;;;3.83;3.30;;;;;;;;;;5003612;28;20182;-84
2022/09/02 03:51:33;;;;;;;5.27;3.37;;;;;;;;;;5003736;28;20178;-84
2022/09/02 03:54:37;;;;;;;7.17;3.47;;;;;;;;;;4992678;28;20222;-84
2022/09/02 03:57:42;;;;;;;7.07;3.20;;;;;;;;;;5002738;28;20664;-84
2022/09/02 04:00:51;;;;;;;45.00;5.27;;;;;;;;;;4992697;28;20240;-84
2022/09/02 04:03:55;;;;;;;4.53;3.27;;;;;;;;;;5003767;28;20565;-84
2022/09/02 04:07:00;;;;;;;3.73;3.10;;;;;;;;;;5003236;28;20181;-84
2022/09/02 04:10:07;;;;;;;8.40;4.77;;;;;;;;;;4992107;28;20208;-84
2022/09/02 04:13:11;;;;;;;14.47;6.30;;;;;;;;;;5003506;28;20518;-83
2022/09/02 04:16:21;;;;;;;8.80;5.10;;;;;;;;;;5003589;28;20181;-84
2022/09/02 04:19:25;;;;;;;40.87;7.20;;;;;;;;;;4992484;28;20633;-84
2022/09/02 04:22:30;;;;;;;45.93;7.87;;;;;;;;;;5003298;28;20201;-84
2022/09/02 04:25:39;;;;;;;7.20;3.93;;;;;;;;;;5002911;28;20209;-84
2022/09/02 04:28:46;;;;;;;8.93;3.67;;;;;;;;;;4992407;28;20182;-84
2022/09/02 04:31:51;;;;;;;14.60;3.40;;;;;;;;;;5003117;28;20181;-85
2022/09/02 04:34:56;;;;;;;7.77;3.50;;;;;;;;;;4991650;28;20565;-83
2022/09/02 04:38:00;;;;;;;3.57;2.90;;;;;;;;;;5002894;28;20177;-83
2022/09/02 04:41:09;;;;;;;4.43;2.90;;;;;;;;;;5003027;28;20177;-84
2022/09/02 04:44:14;;;;;;;56.83;5.40;;;;;;;;;;4991469;28;20217;-83
2022/09/02 04:47:21;;;;;;;29.73;4.10;;;;;;;;;;5003441;28;20205;-83
2022/09/02 04:50:25;;;;;;;13.40;3.23;;;;;;;;;;5003025;28;20197;-83
2022/09/02 04:53:36;;;;;;;11.83;3.30;;;;;;;;;;5002787;28;20193;-83
2022/09/02 04:56:41;;;;;;;8.27;3.20;;;;;;;;;;4992246;28;20182;-83
2022/09/02 04:59:45;;;;;;;8.13;2.53;;;;;;;;;;4991829;28;20510;-83
2022/09/02 05:02:51;;;;;;;5.77;3.23;;;;;;;;;;4992036;28;20625;-83
2022/09/02 05:06:01;;;;;;;7.07;2.67;;;;;;;;;;5003098;28;20186;-83
2022/09/02 05:09:07;;;;;;;6.50;2.80;;;;;;;;;;5004636;28;20178;-83
2022/09/02 05:12:13;;;;;;;4.97;3.13;;;;;;;;;;5006719;28;20182;-83
2022/09/02 05:15:26;;;;;;;14.53;3.77;;;;;;;;;;5006389;28;20233;-83
2022/09/02 05:18:31;;;;;;;10.07;3.83;;;;;;;;;;4995524;28;20182;-83
2022/09/02 05:21:42;;;;;;;28.03;4.37;;;;;;;;;;4995031;28;20177;-81
2022/09/02 05:24:50;;;;;;;12.97;4.17;;;;;;;;;;4995479;28;20213;-83
2022/09/02 05:27:54;;;;;;;7.97;3.37;;;;;;;;;;5006421;28;20186;-83
2022/09/02 05:31:11;;;;;;;16.50;4.13;;;;;;;;;;5006299;28;20181;-84
2022/09/02 05:34:16;;;;;;;7.77;4.20;;;;;;;;;;5006335;28;20225;-83
2022/09/02 05:37:21;;;;;;;35.90;5.10;;;;;;;;;;4995303;28;20177;-83
2022/09/02 05:40:26;;;;;;;14.70;4.53;;;;;;;;;;4995501;28;20177;-83
2022/09/02 05:43:30;;;;;;;22.20;5.10;;;;;;;;;;5017298;28;20173;-83
2022/09/02 05:46:35;;;;;;;9.70;4.03;;;;;;;;;;5006439;28;20515;-83
2022/09/02 05:49:40;;;;;;;9.37;4.20;;;;;;;;;;4994792;28;20190;-83
2022/09/02 05:52:50;;;;;;;5.07;2.87;;;;;;;;;;4996272;28;20186;-83
2022/09/02 05:55:54;;;;;;;22.37;4.03;;;;;;;;;;5005580;28;20217;-83
2022/09/02 05:58:59;;;;;;;12.43;3.23;;;;;;;;;;4994574;28;20181;-83
2022/09/02 06:02:05;;;;;;;8.97;3.17;;;;;;;;;;5006140;28;20178;-83
2022/09/02 06:05:10;;;;;;;6.73;3.20;;;;;;;;;;4994639;28;20221;-83
2022/09/02 06:08:15;;;;;;;12.40;3.30;;;;;;;;;;4994629;28;20181;-83
2022/09/02 06:11:19;;;;;;;8.67;3.13;;;;;;;;;;4994495;28;20636;-83
2022/09/02 06:14:25;;;;;;;18.00;2.80;;;;;;;;;;5005804;28;20221;-83
2022/09/02 06:17:31;;;;;;;4.50;2.10;;;;;;;;;;4996451;28;20174;-83
2022/09/02 06:20:43;;;;;;;2.90;2.07;;;;;;;;;;5006296;28;20186;-83
2022/09/02 06:23:48;;;;;;;3.90;1.87;;;;;;;;;;4996589;28;20221;-83
2022/09/02 06:26:53;;;;;;;2.53;1.60;;;;;;;;;;5006265;28;20514;-84
2022/09/02 06:29:57;;;;;;;2.73;1.67;;;;;;;;;;5005814;28;20190;-83
2022/09/02 06:33:03;;;;;;;3.63;1.90;;;;;;;;;;5005254;28;20197;-83
2022/09/02 06:36:10;;;;;;;4.77;2.00;;;;;;;;;;4993712;28;20580;-83
2022/09/02 06:39:16;;;;;;;3.63;1.87;;;;;;;;;;4994283;28;20182;-83
2022/09/02 06:42:22;;;;;;;3.40;1.80;;;;;;;;;;5005116;28;20510;-82
2022/09/02 06:45:45;;;;;;;2.37;1.73;;;;;;;;;;5006882;28;20214;-83
2022/09/02 06:48:51;;;;;;;28.20;2.87;;;;;;;;;;4994426;28;20177;-84
2022/09/02 06:51:59;;;;;;;1.80;1.40;;;;;;;;;;4993825;28;20197;-83
2022/09/02 06:55:09;;;;;;;4.90;1.90;;;;;;;;;;4993563;28;20225;-83
2022/09/02 06:58:15;;;;;;;3.43;1.50;;;;;;;;;;4994078;28;20637;-83
2022/09/02 07:01:25;;;;;;;14.60;1.80;;;;;;;;;;5016042;28;20181;-83
2022/09/02 07:07:56;;;;;;;2.60;1.60;;;;;;;;;;5004175;28;20181;-84
2022/09/02 07:11:02;;;;;;;3.50;1.50;;;;;;;;;;5004185;28;20185;-84
2022/09/02 07:14:08;;;;;;;3.37;1.43;;;;;;;;;;5004771;28;20213;-84
2022/09/02 07:17:20;;;;;;;2.13;1.40;;;;;;;;;;4993745;28;20181;-83
2022/09/02 07:20:27;;;;;;;3.80;1.40;;;;;;;;;;4994042;28;20185;-84
2022/09/02 07:23:35;;;;;;;2.53;1.50;;;;;;;;;;5004552;28;20178;-84
2022/09/02 07:26:40;;;;;;;2.23;1.40;;;;;;;;;;5004461;28;20169;-83
2022/09/02 07:29:47;;;;;;;2.50;1.30;;;;;;;;;;5004476;28;20177;-83
2022/09/02 07:32:51;;;;;;;5.37;1.37;;;;;;;;;;4992955;28;20186;-83
2022/09/02 07:35:59;;;;;;;5.70;1.20;;;;;;;;;;4993282;28;20213;-83
2022/09/02 07:39:06;;;;;;;6.37;1.30;;;;;;;;;;4992945;28;20181;-83
2022/09/02 07:42:10;;;;;;;6.63;1.70;;;;;;;;;;5004071;28;20177;-83
2022/09/02 07:45:14;;;;;;;3.67;1.47;;;;;;;;;;5003739;28;20209;-83
2022/09/02 07:48:21;;;;;;;1.33;0.90;;;;;;;;;;4992741;28;20541;-83
2022/09/02 07:51:25;;;;;;;2.77;1.20;;;;;;;;;;5014507;28;20193;-83
2022/09/02 07:54:31;;;;;;;5.03;1.20;;;;;;;;;;4992275;28;20213;-83
2022/09/02 07:57:35;;;;;;;74.30;5.80;;;;;;;;;;4992600;28;20170;-83
2022/09/02 08:00:41;;;;;;;1.77;1.03;;;;;;;;;;5004195;28;20182;-83
2022/09/02 08:03:47;;;;;;;4.93;1.33;;;;;;;;;;5004392;28;20557;-83
2022/09/02 08:06:53;;;;;;;1.20;0.90;;;;;;;;;;5003170;28;20182;-83
2022/09/02 08:09:59;;;;;;;3.40;1.10;;;;;;;;;;5002632;28;20201;-83
2022/09/02 08:13:05;;;;;;;1.57;1.07;;;;;;;;;;5004767;28;20181;-83
2022/09/02 08:16:09;;;;;;;2.13;1.20;;;;;;;;;;5003420;28;20213;-83
2022/09/02 08:19:14;;;;;;;2.53;1.17;;;;;;;;;;4991728;28;20177;-83
2022/09/02 08:22:19;;;;;;;2.70;1.37;;;;;;;;;;5002773;28;20177;-83
2022/09/02 08:25:24;;;;;;;2.13;1.33;;;;;;;;;;5002521;28;20209;-83
2022/09/02 08:28:30;;;;;;;248.83;12.03;;;;;;;;;;4991561;28;20185;-83
2022/09/02 08:31:36;;;;;;;5.07;1.20;;;;;;;;;;4996658;28;20177;-83
2022/09/02 08:34:40;;;;;;;2.57;1.20;;;;;;;;;;5007757;28;20221;-83
2022/09/02 08:37:45;;;;;;;1.77;1.00;;;;;;;;;;5008237;28;20174;-83
2022/09/02 08:40:50;;;;;;;3.97;1.43;;;;;;;;;;5019622;28;20177;-83
2022/09/02 08:43:58;;;;;;;2.53;1.10;;;;;;;;;;5019734;28;20695;-84
2022/09/02 08:47:07;;;;;;;1.87;0.80;;;;;;;;;;5012565;28;20181;-83
2022/09/02 08:50:15;;;;;;;3.93;1.17;;;;;;;;;;5023412;28;20181;-83
2022/09/02 08:54:02;;;;;;;1.50;0.90;;;;;;;;;;5011341;28;20181;-83
2022/09/02 08:57:08;;;;;;;18.03;1.80;;;;;;;;;;5010465;28;20205;-83
2022/09/02 09:00:13;;;;;;;1.07;0.90;;;;;;;;;;4998970;28;20173;-84
2022/09/02 09:03:26;;;;;;;2.23;1.00;;;;;;;;;;5024172;23;20297;-89
2022/09/02 09:07:18;;;;;;;1.83;0.90;;;;;;;;;;5005292;28;20170;-85
2022/09/02 09:10:53;;;;;;;2.77;1.00;;;;;;;;;;4963441;28;20215;-84
2022/09/02 09:14:16;;;;;;;3.70;0.90;;;;;;;;;;4932213;28;20210;-84
2022/09/02 09:17:33;;;;;;;4.53;0.93;;;;;;;;;;4995864;28;20211;-84
2022/09/02 09:20:41;;;;;;;2.33;0.80;;;;;;;;;;4983825;28;20190;-84
2022/09/02 09:23:47;;;;;;;3.30;0.70;;;;;;;;;;4984542;28;20179;-84
2022/09/02 09:26:53;;;;;;;0.97;0.70;;;;;;;;;;4984038;28;20180;-83
2022/09/02 09:29:57;;;;;;;2.70;0.80;;;;;;;;;;4984406;28;20177;-84
2022/09/02 09:33:03;;;;;;;2.47;0.80;;;;;;;;;;4983926;28;20221;-84
2022/09/02 09:36:10;;;;;;;2.83;1.20;;;;;;;;;;4983344;28;20218;-85
2022/09/02 09:39:30;;;;;;;29.73;2.27;;;;;;;;;;4984623;28;20184;-83
2022/09/02 09:42:36;;;;;;;7.33;1.33;;;;;;;;;;4984589;28;20219;-84
2022/09/02 09:45:45;;;;;;;2.80;0.80;;;;;;;;;;4986174;28;20181;-84
2022/09/02 09:48:50;;;;;;;2.03;0.70;;;;;;;;;;4985883;28;20179;-83
2022/09/02 09:51:55;;;;;;;2.27;0.83;;;;;;;;;;4986331;28;20556;-84
2022/09/02 09:55:09;;;;;;;1.23;0.70;;;;;;;;;;4998464;28;20180;-84
2022/09/02 09:58:13;;;;;;;3.67;0.90;;;;;;;;;;4988744;28;20638;-84
2022/09/02 10:01:22;;;;;;;3.77;1.20;;;;;;;;;;4986122;28;20198;-86
2022/09/02 10:04:32;;;;;;;1.40;0.87;;;;;;;;;;4985308;28;20185;-86
2022/09/02 10:07:41;;;;;;;5.50;1.73;;;;;;;;;;4996770;28;20187;-87
2022/09/02 10:11:05;;;;;;;2.05;0.80;;;;;;;;;;4985141;28;20200;-86
2022/09/02 10:14:10;;;;;;;2.45;0.98;;;;;;;;;;4996589;28;20188;-86
2022/09/02 10:17:40;;;;;;;4.57;1.10;;;;;;;;;;4985228;28;20223;-87
2022/09/02 10:21:05;;;;;;;1.95;0.85;;;;;;;;;;4984808;28;20663;-86
2022/09/02 10:24:47;;;;;;;2.58;0.77;;;;;;;;;;4985250;28;20185;-86
2022/09/02 10:28:12;;;;;;;1.40;0.68;;;;;;;;;;4985117;28;20185;-86
2022/09/02 10:31:36;;;;;;;10.90;0.80;;;;;;;;;;4984996;28;20192;-86
2022/09/02 10:34:59;;;;;;;1.33;0.80;;;;;;;;;;4984850;28;20190;-86
2022/09/02 10:38:33;;;;;;;0.60;0.60;;;;;;;;;;4985110;28;20183;-86
2022/09/02 10:41:47;;;;;;;1.17;0.80;;;;;;;;;;4984838;28;20218;-87
2022/09/02 10:45:00;;;;;;;4.07;1.10;;;;;;;;;;4984734;28;20186;-86
2022/09/02 10:48:23;;;;;;;7.10;1.00;;;;;;;;;;4984830;28;20186;-86
2022/09/02 10:51:30;;;;;;;3.38;0.95;;;;;;;;;;4984432;28;20567;-86
2022/09/02 10:54:55;;;;;;;1.23;0.70;;;;;;;;;;4996545;28;20181;-86
2022/09/02 10:58:03;;;;;;;1.98;0.63;;;;;;;;;;4984637;28;20197;-86
2022/09/02 11:01:16;;;;;;;2.50;0.68;;;;;;;;;;4984458;28;20189;-86
2022/09/02 11:04:33;;;;;;;8.07;1.15;;;;;;;;;;4973279;28;20202;-86
2022/09/02 11:07:52;;;;;;;4.82;0.85;;;;;;;;;;4983878;28;20198;-86
2022/09/02 11:11:12;;;;;;;1.35;0.93;;;;;;;;;;4984164;28;20184;-86
2022/09/02 11:14:39;;;;;;;3.13;0.93;;;;;;;;;;4984339;28;20181;-86
2022/09/02 11:17:51;;;;;;;16.52;1.33;;;;;;;;;;4984095;28;20216;-85
2022/09/02 11:21:00;;;;;;;1.63;0.77;;;;;;;;;;4983889;28;20198;-86
2022/09/02 11:24:15;;;;;;;5.38;1.15;;;;;;;;;;4983789;28;20201;-86
2022/09/02 11:27:38;;;;;;;3.30;0.75;;;;;;;;;;4984224;28;20182;-86
2022/09/02 11:30:48;;;;;;;20.70;2.22;;;;;;;;;;4983961;28;20185;-86
2022/09/02 11:34:01;;;;;;;5.80;0.80;;;;;;;;;;4983856;28;20182;-85
2022/09/02 11:37:09;;;;;;;2.10;0.65;;;;;;;;;;4983734;28;20208;-86
2022/09/02 11:40:19;;;;;;;5.18;1.00;;;;;;;;;;4995553;28;20194;-86
2022/09/02 11:43:39;;;;;;;2.65;0.80;;;;;;;;;;4983476;28;20211;-86
2022/09/02 11:46:55;;;;;;;4.50;0.88;;;;;;;;;;4983918;28;20176;-86
2022/09/02 11:50:14;;;;;;;1.80;0.88;;;;;;;;;;4983494;28;20205;-86
2022/09/02 11:53:26;;;;;;;1.75;0.63;;;;;;;;;;4983375;28;20229;-86
2022/09/02 11:56:37;;;;;;;3.47;1.00;;;;;;;;;;4983029;28;20218;-86
2022/09/02 11:59:50;;;;;;;1.95;0.98;;;;;;;;;;4994854;28;20519;-86
2022/09/02 12:03:12;;;;;;;5.82;1.02;;;;;;;;;;4982842;28;20711;-86
2022/09/02 12:06:20;;;;;;;2.53;0.70;;;;;;;;;;4983361;28;20178;-86
2022/09/02 12:09:42;;;;;;;2.70;0.80;;;;;;;;;;4983119;28;20207;-86
2022/09/02 12:12:57;;;;;;;1.13;0.75;;;;;;;;;;4983179;28;20219;-86
2022/09/02 12:16:18;;;;;;;32.65;3.15;;;;;;;;;;4983006;28;20188;-86
2022/09/02 12:19:27;;;;;;;296.65;17.88;;;;;;;;;;4982111;28;20189;-86
2022/09/02 12:22:37;;;;;;;5.88;4.07;;;;;;;;;;4982645;28;20224;-86
2022/09/02 12:25:55;;;;;;;4.85;1.35;;;;;;;;;;4983163;28;20201;-86
2022/09/02 12:29:25;;;;;;;1.70;0.82;;;;;;;;;;4983051;28;20182;-86
2022/09/02 12:32:44;;;;;;;3.35;1.00;;;;;;;;;;4971531;28;20216;-86
2022/09/02 12:35:51;;;;;;;60.25;3.53;;;;;;;;;;4993940;28;20189;-87
2022/09/02 12:39:24;;;;;;;1.95;1.35;;;;;;;;;;4982848;28;20168;-86
2022/09/02 12:42:32;;;;;;;3.15;1.23;;;;;;;;;;4982667;28;20223;-86
2022/09/02 12:45:42;;;;;;;5.70;5.15;;;;;;;;;;4983377;28;20631;-87
2022/09/02 12:49:00;;;;;;;2.85;2.20;;;;;;;;;;4982929;28;20175;-86
2022/09/02 12:52:08;;;;;;;2.85;1.02;;;;;;;;;;4982356;28;20221;-86
2022/09/02 12:55:28;;;;;;;3.75;2.78;;;;;;;;;;4982740;28;20192;-86
2022/09/02 12:58:44;;;;;;;2.15;1.35;;;;;;;;;;4982564;28;20186;-86
2022/09/02 13:02:03;;;;;;;0.93;0.70;;;;;;;;;;4982358;28;20236;-86
2022/09/02 13:05:24;;;;;;;2.08;1.00;;;;;;;;;;4982318;28;20187;-85
2022/09/02 13:08:59;;;;;;;3.38;1.33;;;;;;;;;;4982135;28;20189;-86
2022/09/02 13:12:31;;;;;;;1.70;0.88;;;;;;;;;;4982366;28;20219;-86
2022/09/02 13:15:38;;;;;;;80.22;3.90;;;;;;;;;;4982384;28;20182;-86
2022/09/02 13:19:05;;;;;;;4.65;1.20;;;;;;;;;;4982211;28;20668;-86
2022/09/02 13:22:12;;;;;;;3.42;1.10;;;;;;;;;;4982189;28;20221;-86
2022/09/02 13:25:25;;;;;;;8.13;1.17;;;;;;;;;;4993542;28;20188;-86
2022/09/02 13:29:06;;;;;;;200.10;17.70;;;;;;;;;;4993450;28;20188;-86
2022/09/02 13:32:18;;;;;;;15.02;8.77;;;;;;;;;;4985872;28;20223;-86
2022/09/02 13:35:27;;;;;;;4.15;3.42;;;;;;;;;;4985986;28;20182;-86
2022/09/02 13:38:31;;;;;;;1.77;1.08;;;;;;;;;;4986189;28;20213;-86
2022/09/02 13:41:36;;;;;;;0.93;0.85;;;;;;;;;;4985400;28;20224;-86
2022/09/02 13:44:39;;;;;;;5.68;1.10;;;;;;;;;;4985881;28;20187;-86
2022/09/02 13:47:49;;;;;;;0.80;0.80;;;;;;;;;;4996985;28;20529;-86
2022/09/02 13:50:56;;;;;;;9.35;1.55;;;;;;;;;;4985796;28;20189;-86
2022/09/02 13:54:00;;;;;;;21.17;1.92;;;;;;;;;;4985653;28;20205;-86
2022/09/02 13:57:12;;;;;;;1.20;0.90;;;;;;;;;;4985717;28;20207;-86
2022/09/02 14:00:30;;;;;;;2.63;0.80;;;;;;;;;;4985454;28;20200;-86
2022/09/02 14:03:35;;;;;;;2.10;1.13;;;;;;;;;;4985547;28;20542;-86
2022/09/02 14:06:43;;;;;;;3.22;0.80;;;;;;;;;;4996856;28;20526;-86
2022/09/02 14:09:47;;;;;;;3.47;1.00;;;;;;;;;;4985410;28;20534;-86
2022/09/02 14:12:52;;;;;;;2.03;0.90;;;;;;;;;;4985281;28;20225;-86
2022/09/02 14:16:23;;;;;;;1.50;0.75;;;;;;;;;;4985392;28;20187;-86
2022/09/02 14:19:27;;;;;;;3.28;0.90;;;;;;;;;;4985290;28;20251;-86
2022/09/02 14:22:31;;;;;;;43.67;2.03;;;;;;;;;;4985472;28;20214;-86
2022/09/02 14:25:37;;;;;;;4.95;4.50;;;;;;;;;;4985103;28;20522;-86
2022/09/02 14:28:41;;;;;;;3.83;1.85;;;;;;;;;;4996337;28;20179;-86
2022/09/02 14:32:01;;;;;;;35.38;2.60;;;;;;;;;;4985470;28;20216;-86
2022/09/02 14:35:19;;;;;;;2.63;0.80;;;;;;;;;;4995761;28;20189;-86
2022/09/02 14:38:25;;;;;;;2.10;0.85;;;;;;;;;;4985005;28;20213;-86
2022/09/02 14:41:34;;;;;;;0.60;0.50;;;;;;;;;;4994935;28;20222;-86
2022/09/02 14:44:39;;;;;;;3.88;1.20;;;;;;;;;;4996091;28;20628;-86
2022/09/02 14:47:43;;;;;;;2.95;0.90;;;;;;;;;;4995767;28;20180;-86
2022/09/02 14:50:49;;;;;;;3.10;1.13;;;;;;;;;;4984762;28;20184;-86
2022/09/02 14:53:53;;;;;;;3.45;0.80;;;;;;;;;;4985039;28;20614;-86
2022/09/02 14:56:57;;;;;;;20.30;2.15;;;;;;;;;;4995792;28;20179;-86
2022/09/02 15:00:08;;;;;;;9.02;1.33;;;;;;;;;;4984807;28;20189;-86
2022/09/02 15:03:15;;;;;;;3.80;1.00;;;;;;;;;;5001040;23;20240;-85
2022/09/02 15:06:19;;;;;;;23.17;2.35;;;;;;;;;;4975280;28;20176;-85
2022/09/02 15:09:24;;;;;;;1.02;0.68;;;;;;;;;;4996080;28;20185;-85
2022/09/02 15:12:32;;;;;;;4.15;1.00;;;;;;;;;;4995663;28;20221;-85
2022/09/02 15:15:36;;;;;;;7.85;1.17;;;;;;;;;;4974698;28;20521;-83
2022/09/02 15:18:40;;;;;;;2.10;0.98;;;;;;;;;;4987606;28;20689;-82
2022/09/02 15:21:44;;;;;;;4.95;1.00;;;;;;;;;;4986394;28;20182;-82
2022/09/02 15:24:49;;;;;;;2.45;0.85;;;;;;;;;;4985489;28;20187;-82
2022/09/02 15:27:53;;;;;;;36.63;2.90;;;;;;;;;;4974418;28;20514;-82
2022/09/02 15:30:59;;;;;;;2.60;2.03;;;;;;;;;;4997262;28;20186;-83
2022/09/02 15:34:03;;;;;;;17.37;1.70;;;;;;;;;;4985251;28;20177;-83
2022/09/02 15:37:08;;;;;;;2.13;0.80;;;;;;;;;;4984172;28;20179;-83
2022/09/02 15:40:11;;;;;;;1.43;0.80;;;;;;;;;;4972567;28;20189;-83
2022/09/02 15:43:17;;;;;;;9.17;1.03;;;;;;;;;;4971956;28;20222;-82
2022/09/02 15:46:30;;;;;;;7.67;0.93;;;;;;;;;;4971605;28;20178;-83
2022/09/02 15:49:34;;;;;;;17.60;3.70;;;;;;;;;;4981948;28;20529;-82
2022/09/02 15:52:38;;;;;;;52.87;3.53;;;;;;;;;;4992533;28;20221;-82
2022/09/02 15:55:42;;;;;;;1.77;0.90;;;;;;;;;;4970140;28;20179;-82
2022/09/02 15:58:52;;;;;;;5.07;1.30;;;;;;;;;;4959335;28;20222;-83
2022/09/02 16:01:57;;;;;;;2.27;1.20;;;;;;;;;;4969446;28;20218;-82
2022/09/02 16:05:01;;;;;;;3.63;1.00;;;;;;;;;;4992336;28;20186;-82
2022/09/02 16:08:05;;;;;;;3.20;1.00;;;;;;;;;;4991870;28;20179;-82
2022/09/02 16:11:10;;;;;;;4.20;0.87;;;;;;;;;;4969012;28;20186;-82
2022/09/02 16:14:15;;;;;;;1.60;0.90;;;;;;;;;;4968575;28;20182;-82
2022/09/02 16:17:19;;;;;;;2.33;1.23;;;;;;;;;;4968095;28;20187;-82
2022/09/02 16:20:24;;;;;;;17.33;2.70;;;;;;;;;;4978813;28;20183;-82
2022/09/02 16:23:28;;;;;;;8.30;2.30;;;;;;;;;;4967711;28;20222;-81
2022/09/02 16:26:36;;;;;;;3.40;2.23;;;;;;;;;;4966892;28;20302;-82
2022/09/02 16:29:41;;;;;;;3.37;1.20;;;;;;;;;;4956461;28;20179;-82
2022/09/02 16:32:46;;;;;;;1.60;0.77;;;;;;;;;;4978438;28;20701;-81
2022/09/02 16:35:50;;;;;;;1.70;1.10;;;;;;;;;;4977739;28;20535;-81
2022/09/02 16:38:55;;;;;;;15.33;7.33;;;;;;;;;;4966869;28;20226;-81
2022/09/02 16:42:03;;;;;;;30.03;10.27;;;;;;;;;;4977225;28;20222;-81
2022/09/02 16:45:07;;;;;;;5.57;2.63;;;;;;;;;;4977332;28;20186;-81
2022/09/02 16:48:11;;;;;;;9.40;4.50;;;;;;;;;;4966714;28;20282;-81
2022/09/02 16:51:16;;;;;;;5.63;2.33;;;;;;;;;;4966279;28;20179;-81
2022/09/02 16:54:20;;;;;;;4.07;1.70;;;;;;;;;;4966128;28;20625;-81
2022/09/02 16:57:24;;;;;;;14.27;7.53;;;;;;;;;;4966062;28;20179;-81
2022/09/02 17:00:28;;;;;;;6.43;2.27;;;;;;;;;;4965353;28;20183;-82
2022/09/02 17:03:33;;;;;;;7.53;4.00;;;;;;;;;;4976067;28;20230;-82
2022/09/02 17:06:37;;;;;;;5.23;3.40;;;;;;;;;;4964239;28;20183;-84
2022/09/02 17:09:41;;;;;;;3.63;2.47;;;;;;;;;;4964317;28;20179;-85
2022/09/02 17:12:45;;;;;;;5.83;2.80;;;;;;;;;;4975262;28;20218;-84
2022/09/02 17:15:50;;;;;;;10.43;4.13;;;;;;;;;;4964297;28;20198;-85
2022/09/02 17:18:54;;;;;;;6.93;4.93;;;;;;;;;;4965069;28;20222;-85
2022/09/02 17:21:58;;;;;;;7.93;4.83;;;;;;;;;;4964689;28;20218;-85
2022/09/02 17:25:03;;;;;;;20.50;11.10;;;;;;;;;;4975290;28;20187;-84
2022/09/02 17:28:07;;;;;;;28.10;16.73;;;;;;;;;;4964593;28;20190;-85
2022/09/02 17:31:18;;;;;;;23.27;11.13;;;;;;;;;;4975584;28;20189;-84
2022/09/02 17:34:22;;;;;;;20.97;12.73;;;;;;;;;;4964163;28;20194;-85
2022/09/02 17:37:26;;;;;;;13.53;7.70;;;;;;;;;;4953219;28;20190;-84
2022/09/02 17:43:53;;;;;;;18.07;12.13;;;;;;;;;;4975005;28;20692;-84
2022/09/02 17:46:57;;;;;;;19.83;12.67;;;;;;;;;;4952784;28;20201;-84
2022/09/02 17:50:01;;;;;;;10.23;6.47;;;;;;;;;;4952810;28;20178;-84
2022/09/02 17:53:05;;;;;;;7.37;4.17;;;;;;;;;;4977676;28;20219;-85
2022/09/02 17:56:20;;;;;;;3.73;2.67;;;;;;;;;;4975073;28;20518;-85
2022/09/02 17:59:36;;;;;;;4.70;3.03;;;;;;;;;;4974317;28;20219;-85
2022/09/02 18:02:41;;;;;;;9.63;3.50;;;;;;;;;;4974606;28;20234;-84
2022/09/02 18:05:50;;;;;;;5.90;5.10;;;;;;;;;;4974504;28;20515;-84
2022/09/02 18:08:57;;;;;;;3.97;3.10;;;;;;;;;;4963803;28;20175;-84
2022/09/02 18:12:01;;;;;;;2.43;2.03;;;;;;;;;;4963716;28;20309;-84
2022/09/02 18:15:05;;;;;;;1.70;1.20;;;;;;;;;;4963923;28;20183;-84
2022/09/02 18:18:12;;;;;;;51.20;4.53;;;;;;;;;;4966419;28;20567;-84
2022/09/02 18:21:29;;;;;;;18.23;2.27;;;;;;;;;;4967229;28;20182;-84
2022/09/02 18:25:12;;;;;;;10.20;1.63;;;;;;;;;;4966930;28;20179;-84
2022/09/02 18:28:33;;;;;;;6.40;1.03;;;;;;;;;;4990469;28;20179;-84
2022/09/02 18:31:59;;;;;;;2.03;0.80;;;;;;;;;;4966856;28;20183;-84
2022/09/02 18:35:18;;;;;;;3.83;1.07;;;;;;;;;;4977973;28;20187;-84
2022/09/02 18:38:46;;;;;;;5.20;0.97;;;;;;;;;;4978699;28;20215;-84
2022/09/02 18:42:01;;;;;;;1.60;0.90;;;;;;;;;;4967191;28;20226;-84
2022/09/02 18:45:19;;;;;;;2.47;1.17;;;;;;;;;;4967042;28;20187;-84
2022/09/02 18:48:37;;;;;;;1.47;1.30;;;;;;;;;;4966586;28;20179;-84
2022/09/02 18:51:43;;;;;;;3.33;1.53;;;;;;;;;;4978384;28;20179;-84
2022/09/02 18:55:09;;;;;;;3.63;1.40;;;;;;;;;;4966856;28;20183;-84
2022/09/02 18:58:38;;;;;;;3.10;1.10;;;;;;;;;;4966636;28;20183;-84